createdAt,value
2018-06-15T00:00:38.514Z,26.30
2018-06-15T00:03:08.052Z,24.47
2018-06-15T00:05:37.206Z,25.00
2018-06-15T00:08:06.211Z,22.47
2018-06-15T00:10:35.180Z,22.60
2018-06-15T00:13:04.228Z,22.83
2018-06-15T00:15:33.429Z,22.57
2018-06-15T00:18:02.280Z,20.43
2018-06-15T00:20:31.540Z,21.27
2018-06-15T00:23:00.737Z,22.10
2018-06-15T00:25:29.944Z,23.43
2018-06-15T00:27:59.093Z,22.23
2018-06-15T00:30:28.051Z,22.30
2018-06-15T00:32:57.683Z,20.70
2018-06-15T00:35:26.723Z,21.87
2018-06-15T00:37:56.320Z,21.70
2018-06-15T00:40:25.514Z,18.17
2018-06-15T00:43:02.116Z,20.83
2018-06-15T00:45:31.361Z,20.00
2018-06-15T00:48:00.259Z,20.77
2018-06-15T00:50:29.481Z,20.10
2018-06-15T00:52:58.763Z,16.03
2018-06-15T00:55:27.661Z,14.27
2018-06-15T00:57:57.237Z,14.63
2018-06-15T01:00:26.092Z,12.70
2018-06-15T01:02:55.345Z,12.20
2018-06-15T01:05:24.306Z,12.53
2018-06-15T01:07:53.311Z,12.77
2018-06-15T01:10:23.380Z,13.83
2018-06-15T01:12:52.623Z,15.30
2018-06-15T01:15:21.896Z,15.37
2018-06-15T01:17:51.121Z,16.27
2018-06-15T01:20:20.579Z,18.07
2018-06-15T01:22:49.757Z,17.60
2018-06-15T01:25:18.606Z,16.73
2018-06-15T01:27:47.976Z,16.30
2018-06-15T01:30:17.516Z,16.17
2018-06-15T01:32:46.677Z,16.40
2018-06-15T01:35:15.907Z,14.20
2018-06-15T01:37:45.172Z,14.70
2018-06-15T01:40:14.676Z,13.87
2018-06-15T01:42:44.411Z,14.83
2018-06-15T01:45:13.732Z,15.87
2018-06-15T01:47:42.899Z,13.10
2018-06-15T01:50:12.195Z,14.97
2018-06-15T01:52:41.566Z,14.60
2018-06-15T01:55:10.903Z,13.93
2018-06-15T01:57:40.781Z,14.67
2018-06-15T02:00:09.859Z,14.53
2018-06-15T02:02:39.058Z,14.53
2018-06-15T02:05:07.968Z,15.20
2018-06-15T02:07:37.247Z,16.90
2018-06-15T02:10:06.561Z,17.37
2018-06-15T02:12:35.481Z,14.77
2018-06-15T02:15:04.600Z,14.40
2018-06-15T02:17:33.556Z,14.30
2018-06-15T02:20:03.150Z,14.53
2018-06-15T02:22:32.943Z,13.00
2018-06-15T02:25:02.108Z,13.00
2018-06-15T02:27:31.475Z,12.07
2018-06-15T02:30:01.016Z,12.20
2018-06-15T02:32:29.936Z,11.40
2018-06-15T02:34:59.482Z,12.30
2018-06-15T02:37:29.616Z,11.60
2018-06-15T02:39:59.183Z,15.20
2018-06-15T02:42:28.541Z,12.60
2018-06-15T02:44:57.890Z,13.73
2018-06-15T02:47:27.326Z,14.57
2018-06-15T02:49:56.183Z,12.90
2018-06-15T02:52:25.685Z,11.23
2018-06-15T02:54:55.340Z,10.30
2018-06-15T02:57:24.473Z,11.97
2018-06-15T02:59:53.754Z,12.20
2018-06-15T03:02:23.588Z,12.80
2018-06-15T03:04:52.423Z,11.80
2018-06-15T03:07:21.709Z,9.50
2018-06-15T03:09:50.989Z,12.20
2018-06-15T03:12:20.603Z,10.43
2018-06-15T03:14:49.877Z,9.47
2018-06-15T03:17:18.784Z,10.43
2018-06-15T03:19:48.616Z,9.80
2018-06-15T03:22:17.701Z,10.40
2018-06-15T03:24:46.949Z,12.03
2018-06-15T03:27:16.555Z,12.80
2018-06-15T03:29:45.851Z,11.23
2018-06-15T03:32:14.950Z,11.10
2018-06-15T03:34:44.272Z,10.17
2018-06-15T03:37:13.535Z,12.23
2018-06-15T03:39:43.164Z,11.60
2018-06-15T03:42:12.440Z,12.73
2018-06-15T03:44:41.469Z,12.60
2018-06-15T03:47:10.648Z,13.30
2018-06-15T03:49:39.723Z,14.07
2018-06-15T03:52:08.985Z,12.33
2018-06-15T03:54:38.528Z,15.23
2018-06-15T03:57:07.760Z,12.40
2018-06-15T03:59:36.987Z,14.50
2018-06-15T04:02:05.994Z,16.23
2018-06-15T04:04:34.887Z,16.67
2018-06-15T04:07:03.816Z,14.83
2018-06-15T04:09:33.495Z,14.57
2018-06-15T04:12:02.341Z,15.17
2018-06-15T04:14:31.528Z,12.37
2018-06-15T04:17:00.628Z,12.40
2018-06-15T04:19:29.750Z,11.53
2018-06-15T04:21:59.183Z,13.17
2018-06-15T04:24:28.368Z,10.77
2018-06-15T04:26:57.543Z,11.17
2018-06-15T04:29:26.562Z,10.80
2018-06-15T04:31:55.909Z,11.97
2018-06-15T04:34:25.450Z,14.00
2018-06-15T04:36:54.700Z,13.27
2018-06-15T04:39:23.600Z,12.03
2018-06-15T04:41:53.357Z,12.63
2018-06-15T04:44:22.863Z,12.40
2018-06-15T04:46:52.991Z,14.30
2018-06-15T04:49:22.816Z,14.23
2018-06-15T04:51:52.385Z,14.20
2018-06-15T04:54:21.347Z,15.60
2018-06-15T04:56:50.327Z,14.60
2018-06-15T04:59:19.549Z,14.93
2018-06-15T05:01:48.491Z,16.10
2018-06-15T05:04:17.998Z,16.00
2018-06-15T05:06:47.924Z,16.60
2018-06-15T05:09:17.189Z,15.80
2018-06-15T05:11:46.061Z,18.00
2018-06-15T05:14:15.015Z,16.33
2018-06-15T05:16:43.961Z,15.03
2018-06-15T05:19:13.028Z,15.20
2018-06-15T05:21:42.316Z,16.27
2018-06-15T05:24:11.336Z,18.23
2018-06-15T05:26:40.584Z,14.80
2018-06-15T05:29:09.569Z,14.90
2018-06-15T05:31:39.056Z,13.70
2018-06-15T05:34:08.048Z,14.83
2018-06-15T05:36:36.924Z,14.03
2018-06-15T05:39:09.510Z,14.40
2018-06-15T05:41:38.728Z,15.60
2018-06-15T05:44:09.566Z,15.90
2018-06-15T05:46:38.779Z,15.90
2018-06-15T05:49:09.754Z,15.00
2018-06-15T05:51:40.929Z,15.87
2018-06-15T05:54:11.329Z,17.20
2018-06-15T05:56:40.978Z,22.67
2018-06-15T05:59:11.618Z,29.67
2018-06-15T06:01:41.522Z,36.60
2018-06-15T06:04:15.665Z,31.50
2018-06-15T06:06:45.444Z,22.50
2018-06-15T06:09:15.012Z,21.50
2018-06-15T06:11:44.380Z,20.13
2018-06-15T06:14:14.156Z,22.50
2018-06-15T06:16:43.837Z,20.47
2018-06-15T06:19:13.403Z,21.97
2018-06-15T06:21:42.466Z,22.03
2018-06-15T06:24:11.893Z,20.20
2018-06-15T06:26:42.036Z,22.97
2018-06-15T06:29:11.165Z,20.27
2018-06-15T06:31:41.002Z,20.67
2018-06-15T06:34:10.756Z,20.40
2018-06-15T06:36:40.157Z,19.97
2018-06-15T06:39:11.615Z,19.30
2018-06-15T06:41:41.132Z,21.97
2018-06-15T06:44:11.169Z,20.97
2018-06-15T06:46:40.496Z,19.67
2018-06-15T06:49:10.618Z,19.87
2018-06-15T06:51:39.613Z,20.43
2018-06-15T06:54:09.132Z,20.03
2018-06-15T06:56:38.617Z,18.57
2018-06-15T06:59:08.142Z,17.80
2018-06-15T07:01:36.970Z,16.87
2018-06-15T07:04:06.261Z,16.53
2018-06-15T07:06:35.608Z,16.97
2018-06-15T07:09:06.589Z,15.43
2018-06-15T07:11:36.847Z,17.10
2018-06-15T07:14:07.650Z,15.73
2018-06-15T07:16:37.078Z,15.50
2018-06-15T07:19:06.530Z,14.37
2018-06-15T07:21:35.716Z,14.27
2018-06-15T07:24:06.006Z,14.43
2018-06-15T07:26:37.731Z,13.23
2018-06-15T07:29:07.339Z,11.47
2018-06-15T07:31:40.605Z,10.90
2018-06-15T07:34:10.212Z,10.40
2018-06-15T07:36:39.269Z,11.53
2018-06-15T07:39:10.657Z,9.53
2018-06-15T07:41:41.060Z,9.83
2018-06-15T07:44:10.286Z,11.93
2018-06-15T07:46:40.458Z,11.77
2018-06-15T07:49:09.544Z,9.10
2018-06-15T07:51:39.002Z,8.40
2018-06-15T07:54:08.524Z,8.80
2018-06-15T07:56:38.898Z,11.07
2018-06-15T07:59:08.527Z,10.30
2018-06-15T08:01:37.683Z,9.33
2018-06-15T08:04:09.381Z,11.57
2018-06-15T08:06:38.977Z,12.60
2018-06-15T08:09:09.860Z,12.67
2018-06-15T08:11:40.008Z,15.40
2018-06-15T08:14:09.493Z,15.20
2018-06-15T08:16:38.634Z,14.60
2018-06-15T08:19:07.778Z,13.20
2018-06-15T08:21:37.193Z,13.50
2018-06-15T08:24:06.398Z,16.43
2018-06-15T08:26:35.896Z,16.53
2018-06-15T08:29:04.917Z,17.10
2018-06-15T08:31:34.184Z,16.50
2018-06-15T08:34:03.139Z,16.00
2018-06-15T08:36:32.144Z,19.33
2018-06-15T08:39:01.105Z,18.97
2018-06-15T08:41:30.916Z,24.03
2018-06-15T08:44:00.571Z,24.03
2018-06-15T08:46:30.092Z,24.90
2018-06-15T08:48:59.103Z,22.93
2018-06-15T08:51:28.633Z,23.00
2018-06-15T08:53:57.466Z,23.10
2018-06-15T08:56:26.612Z,24.17
2018-06-15T08:58:55.482Z,21.57
2018-06-15T09:01:24.403Z,22.23
2018-06-15T09:03:53.318Z,20.80
2018-06-15T09:06:22.164Z,19.13
2018-06-15T09:08:51.120Z,17.40
2018-06-15T09:11:20.389Z,15.50
2018-06-15T09:13:49.841Z,16.90
2018-06-15T09:16:18.951Z,16.90
2018-06-15T09:18:48.441Z,16.90
2018-06-15T09:21:17.839Z,17.10
2018-06-15T09:23:46.676Z,18.33
2018-06-15T09:26:15.672Z,17.83
2018-06-15T09:28:45.126Z,16.87
2018-06-15T09:31:14.226Z,18.47
2018-06-15T09:33:43.757Z,15.73
2018-06-15T09:36:12.980Z,15.50
2018-06-15T09:38:42.222Z,15.57
2018-06-15T09:41:11.460Z,14.80
2018-06-15T09:43:40.266Z,15.53
2018-06-15T09:46:09.020Z,15.17
2018-06-15T09:48:41.863Z,14.87
2018-06-15T09:51:11.480Z,13.50
2018-06-15T09:53:40.978Z,12.37
2018-06-15T09:56:10.113Z,13.50
2018-06-15T09:58:38.938Z,13.63
2018-06-15T10:01:07.852Z,11.37
2018-06-15T10:03:37.009Z,10.97
2018-06-15T10:06:05.845Z,11.80
2018-06-15T10:08:35.248Z,11.03
2018-06-15T10:11:04.515Z,8.00
2018-06-15T10:13:33.659Z,9.90
2018-06-15T10:16:02.743Z,10.50
2018-06-15T10:18:32.325Z,9.93
2018-06-15T10:21:01.361Z,10.80
2018-06-15T10:23:30.342Z,8.30
2018-06-15T10:25:59.543Z,6.20
2018-06-15T10:28:28.300Z,6.83
2018-06-15T10:30:57.423Z,7.80
2018-06-15T10:33:26.311Z,8.67
2018-06-15T10:35:55.410Z,8.33
2018-06-15T10:38:24.521Z,7.67
2018-06-15T10:40:53.327Z,9.30
2018-06-15T10:43:22.100Z,8.80
2018-06-15T10:45:50.883Z,11.13
2018-06-15T10:48:20.249Z,9.00
2018-06-15T10:50:49.036Z,9.83
2018-06-15T10:53:18.081Z,10.27
2018-06-15T10:55:47.198Z,10.20
2018-06-15T10:58:16.558Z,9.53
2018-06-15T11:00:45.629Z,11.00
2018-06-15T11:03:14.909Z,9.67
2018-06-15T11:05:43.969Z,10.17
2018-06-15T11:08:13.073Z,7.73
2018-06-15T11:10:41.835Z,9.20
2018-06-15T11:13:10.911Z,9.20
2018-06-15T11:15:39.983Z,8.30
2018-06-15T11:18:08.792Z,7.10
2018-06-15T11:20:38.139Z,7.93
2018-06-15T11:23:07.211Z,5.70
2018-06-15T11:25:36.208Z,6.07
2018-06-15T11:28:05.050Z,6.07
2018-06-15T11:30:33.944Z,6.47
2018-06-15T11:33:02.673Z,7.27
2018-06-15T11:35:31.780Z,7.63
2018-06-15T11:38:01.388Z,5.80
2018-06-15T11:40:31.100Z,5.47
2018-06-15T11:42:59.894Z,6.00
2018-06-15T11:45:29.290Z,3.80
2018-06-15T11:47:58.671Z,4.00
2018-06-15T11:50:28.025Z,3.57
2018-06-15T11:53:01.890Z,4.93
2018-06-15T11:55:30.880Z,4.77
2018-06-15T11:57:59.976Z,4.73
2018-06-15T12:00:29.361Z,5.13
2018-06-15T12:02:58.403Z,5.37
2018-06-15T12:05:27.766Z,4.60
2018-06-15T12:07:57.235Z,5.80
2018-06-15T12:10:26.334Z,5.10
2018-06-15T12:12:55.809Z,3.60
2018-06-15T12:15:24.564Z,3.80
2018-06-15T12:17:53.324Z,6.63
2018-06-15T12:20:22.081Z,4.90
2018-06-15T12:22:51.375Z,4.97
2018-06-15T12:25:20.566Z,5.80
2018-06-15T12:27:49.619Z,5.37
2018-06-15T12:30:18.431Z,6.23
2018-06-15T12:32:47.457Z,5.07
2018-06-15T12:35:16.516Z,6.30
2018-06-15T12:37:45.926Z,5.47
2018-06-15T12:40:14.668Z,5.93
2018-06-15T12:42:43.559Z,6.33
2018-06-15T12:45:12.801Z,5.67
2018-06-15T12:47:41.529Z,5.60
2018-06-15T12:50:10.402Z,4.90
2018-06-15T12:52:39.188Z,4.80
2018-06-15T12:55:07.918Z,4.93
2018-06-15T12:57:37.290Z,4.43
2018-06-15T13:00:06.131Z,4.80
2018-06-15T13:02:35.986Z,4.07
2018-06-15T13:05:05.050Z,4.67
2018-06-15T13:07:34.064Z,5.00
2018-06-15T13:10:03.159Z,4.13
2018-06-15T13:12:31.913Z,4.20
2018-06-15T13:15:01.777Z,4.47
2018-06-15T13:17:31.601Z,4.93
2018-06-15T13:20:00.365Z,4.50
2018-06-15T13:22:29.787Z,4.60
2018-06-15T13:24:58.794Z,4.07
2018-06-15T13:27:27.964Z,4.77
2018-06-15T13:29:57.193Z,5.57
2018-06-15T13:32:26.399Z,4.53
2018-06-15T13:34:55.484Z,4.60
2018-06-15T13:37:24.345Z,4.53
2018-06-15T13:39:53.824Z,4.67
2018-06-15T13:42:22.991Z,4.30
2018-06-15T13:44:52.185Z,4.80
2018-06-15T13:47:21.283Z,4.90
2018-06-15T13:49:50.749Z,3.80
2018-06-15T13:52:20.000Z,4.57
2018-06-15T13:54:49.139Z,3.80
2018-06-15T13:57:17.976Z,3.83
2018-06-15T13:59:47.407Z,3.63
2018-06-15T14:02:16.230Z,3.87
2018-06-15T14:04:45.455Z,3.63
2018-06-15T14:07:14.793Z,4.67
2018-06-15T14:09:44.392Z,4.40
2018-06-15T14:12:13.837Z,4.73
2018-06-15T14:14:42.951Z,4.40
2018-06-15T14:17:11.811Z,6.20
2018-06-15T14:19:40.617Z,4.47
2018-06-15T14:22:09.741Z,4.90
2018-06-15T14:24:38.490Z,5.53
2018-06-15T14:27:07.768Z,5.60
2018-06-15T14:29:37.523Z,5.97
2018-06-15T14:32:06.848Z,6.13
2018-06-15T14:34:36.075Z,5.97
2018-06-15T14:37:05.234Z,4.40
2018-06-15T14:39:34.028Z,6.10
2018-06-15T14:42:03.832Z,6.37
2018-06-15T14:44:32.661Z,6.10
2018-06-15T14:47:02.465Z,7.40
2018-06-15T14:49:31.273Z,5.47
2018-06-15T14:52:00.365Z,7.50
2018-06-15T14:54:30.164Z,7.60
2018-06-15T14:56:59.204Z,7.57
2018-06-15T14:59:28.362Z,7.30
2018-06-15T15:01:57.738Z,8.33
2018-06-15T15:04:26.766Z,7.70
2018-06-15T15:06:55.864Z,7.03
2018-06-15T15:09:24.916Z,7.17
2018-06-15T15:11:53.773Z,7.33
2018-06-15T15:14:23.001Z,6.30
2018-06-15T15:16:52.141Z,7.10
2018-06-15T15:19:21.577Z,6.63
2018-06-15T15:21:50.542Z,6.73
2018-06-15T15:24:19.743Z,5.50
2018-06-15T15:26:49.134Z,6.23
2018-06-15T15:29:18.055Z,6.53
2018-06-15T15:31:47.493Z,6.17
2018-06-15T15:34:23.059Z,5.50
2018-06-15T15:36:52.522Z,5.50
2018-06-15T15:39:21.362Z,5.80
2018-06-15T15:41:51.091Z,5.30
2018-06-15T15:44:20.531Z,5.10
2018-06-15T15:46:50.293Z,4.90
2018-06-15T15:49:19.472Z,4.77
2018-06-15T15:51:48.807Z,5.90
2018-06-15T15:54:18.365Z,5.93
2018-06-15T15:56:47.171Z,6.00
2018-06-15T15:59:16.540Z,5.93
2018-06-15T16:01:45.991Z,5.60
2018-06-15T16:04:15.693Z,5.17
2018-06-15T16:06:44.568Z,5.10
2018-06-15T16:09:13.884Z,5.53
2018-06-15T16:11:43.055Z,4.90
2018-06-15T16:14:12.188Z,5.43
2018-06-15T16:16:41.358Z,5.43
2018-06-15T16:19:10.480Z,4.47
2018-06-15T16:21:39.615Z,5.30
2018-06-15T16:24:08.445Z,5.00
2018-06-15T16:26:37.311Z,6.37
2018-06-15T16:29:06.529Z,5.07
2018-06-15T16:31:35.655Z,4.60
2018-06-15T16:34:04.911Z,5.03
2018-06-15T16:36:34.089Z,5.67
2018-06-15T16:39:03.019Z,4.53
2018-06-15T16:41:31.858Z,5.50
2018-06-15T16:44:01.296Z,6.10
2018-06-15T16:46:30.355Z,5.57
2018-06-15T16:48:59.850Z,5.67
2018-06-15T16:51:28.673Z,5.43
2018-06-15T16:53:57.924Z,5.57
2018-06-15T16:56:27.415Z,5.60
2018-06-15T16:58:56.474Z,6.03
2018-06-15T17:01:26.059Z,5.90
2018-06-15T17:03:55.819Z,5.87
2018-06-15T17:06:25.352Z,5.00
2018-06-15T17:08:54.774Z,5.80
2018-06-15T17:11:23.888Z,5.47
2018-06-15T17:13:53.483Z,4.50
2018-06-15T17:16:23.031Z,6.20
2018-06-15T17:18:52.168Z,5.90
2018-06-15T17:21:21.602Z,6.30
2018-06-15T17:23:50.455Z,5.87
2018-06-15T17:26:19.291Z,6.60
2018-06-15T17:28:48.409Z,5.33
2018-06-15T17:31:17.361Z,6.63
2018-06-15T17:33:46.567Z,5.67
2018-06-15T17:36:15.682Z,6.17
2018-06-15T17:38:44.537Z,6.47
2018-06-15T17:41:14.345Z,6.20
2018-06-15T17:43:43.221Z,6.30
2018-06-15T17:46:12.043Z,7.07
2018-06-15T17:48:41.483Z,5.20
2018-06-15T17:51:10.983Z,6.00
2018-06-15T17:53:39.923Z,6.40
2018-06-15T17:56:09.098Z,6.40
2018-06-15T17:58:38.283Z,7.23
2018-06-15T18:01:07.543Z,7.70
2018-06-15T18:03:36.580Z,6.80
2018-06-15T18:06:05.497Z,5.90
2018-06-15T18:08:34.695Z,6.67
2018-06-15T18:11:03.771Z,8.07
2018-06-15T18:13:32.949Z,7.73
2018-06-15T18:16:01.790Z,7.30
2018-06-15T18:18:31.350Z,7.60
2018-06-15T18:21:00.195Z,7.50
2018-06-15T18:23:29.161Z,7.37
2018-06-15T18:25:57.967Z,6.10
2018-06-15T18:28:26.828Z,7.67
2018-06-15T18:30:56.041Z,8.23
2018-06-15T18:33:25.243Z,8.00
2018-06-15T18:35:54.445Z,7.57
2018-06-15T18:38:23.798Z,7.40
2018-06-15T18:40:53.275Z,7.20
2018-06-15T18:43:22.365Z,8.13
2018-06-15T18:45:52.040Z,7.07
2018-06-15T18:48:20.928Z,6.77
2018-06-15T18:50:50.034Z,6.13
2018-06-15T18:53:18.937Z,8.00
2018-06-15T18:55:48.181Z,7.17
2018-06-15T18:58:18.693Z,6.67
2018-06-15T19:00:47.712Z,7.10
2018-06-15T19:03:16.828Z,5.87
2018-06-15T19:05:46.683Z,6.80
2018-06-15T19:08:15.571Z,6.90
2018-06-15T19:10:44.698Z,7.13
2018-06-15T19:13:13.880Z,6.20
2018-06-15T19:15:43.052Z,6.70
2018-06-15T19:18:12.146Z,7.50
2018-06-15T19:20:41.119Z,10.03
2018-06-15T19:23:10.496Z,8.73
2018-06-15T19:25:39.763Z,10.10
2018-06-15T19:28:08.649Z,8.30
2018-06-15T19:30:37.905Z,8.33
2018-06-15T19:33:07.021Z,8.90
2018-06-15T19:35:35.991Z,8.40
2018-06-15T19:38:05.191Z,8.40
2018-06-15T19:40:34.058Z,9.10
2018-06-15T19:43:02.894Z,10.07
2018-06-15T19:45:32.526Z,9.13
2018-06-15T19:48:01.435Z,9.70
2018-06-15T19:50:30.302Z,8.63
2018-06-15T19:52:59.273Z,7.37
2018-06-15T19:55:28.346Z,10.37
2018-06-15T19:57:57.224Z,10.93
2018-06-15T20:00:26.501Z,11.50
2018-06-15T20:02:55.676Z,11.17
2018-06-15T20:05:24.551Z,12.87
2018-06-15T20:07:54.049Z,12.60
2018-06-15T20:10:23.387Z,13.40
2018-06-15T20:12:52.859Z,11.07
2018-06-15T20:15:22.412Z,11.97
2018-06-15T20:17:51.638Z,11.37
2018-06-15T20:20:20.630Z,12.83
2018-06-15T20:22:50.079Z,10.23
2018-06-15T20:25:19.041Z,11.50
2018-06-15T20:27:48.180Z,11.40
2018-06-15T20:30:17.651Z,10.10
2018-06-15T20:32:46.764Z,9.00
2018-06-15T20:35:15.914Z,9.20
2018-06-15T20:37:45.044Z,8.53
2018-06-15T20:40:14.006Z,7.50
2018-06-15T20:42:43.501Z,7.20
2018-06-15T20:45:12.625Z,6.67
2018-06-15T20:47:41.702Z,6.90
2018-06-15T20:50:10.967Z,6.90
2018-06-15T20:52:40.650Z,5.13
2018-06-15T20:55:09.811Z,5.57
2018-06-15T20:57:38.984Z,6.63
2018-06-15T21:00:08.777Z,5.63
2018-06-15T21:02:38.612Z,5.47
2018-06-15T21:05:07.560Z,5.13
2018-06-15T21:07:36.401Z,5.60
2018-06-15T21:10:05.696Z,6.03
2018-06-15T21:12:34.633Z,5.63
2018-06-15T21:15:03.851Z,5.20
2018-06-15T21:17:33.054Z,5.27
2018-06-15T21:20:02.277Z,5.47
2018-06-15T21:22:31.060Z,5.20
2018-06-15T21:25:00.481Z,6.27
2018-06-15T21:27:29.959Z,5.33
2018-06-15T21:29:59.428Z,5.37
2018-06-15T21:32:28.295Z,5.93
2018-06-15T21:34:58.049Z,7.10
2018-06-15T21:37:27.056Z,5.70
2018-06-15T21:39:56.011Z,5.67
2018-06-15T21:42:25.245Z,5.87
2018-06-15T21:44:54.165Z,6.93
2018-06-15T21:47:23.368Z,5.97
2018-06-15T21:49:52.241Z,6.80
2018-06-15T21:52:21.286Z,6.30
2018-06-15T21:54:50.568Z,5.43
2018-06-15T21:57:19.667Z,5.77
2018-06-15T21:59:48.788Z,8.27
2018-06-15T22:02:17.757Z,6.47
2018-06-15T22:04:46.822Z,6.27
2018-06-15T22:07:16.467Z,5.73
2018-06-15T22:09:45.519Z,5.90
2018-06-15T22:12:15.176Z,5.67
2018-06-15T22:14:44.355Z,6.00
2018-06-15T22:17:14.547Z,5.30
2018-06-15T22:19:44.716Z,6.80
2018-06-15T22:22:16.064Z,4.83
2018-06-15T22:24:46.257Z,5.30
2018-06-15T22:27:16.415Z,5.60
2018-06-15T22:29:46.371Z,5.57
2018-06-15T22:32:16.071Z,5.80
2018-06-15T22:34:45.244Z,5.80
2018-06-15T22:37:14.462Z,5.27
2018-06-15T22:39:43.708Z,4.90
2018-06-15T22:42:12.602Z,5.27
2018-06-15T22:44:41.719Z,6.90
2018-06-15T22:47:10.797Z,5.27
2018-06-15T22:49:39.968Z,5.73
2018-06-15T22:52:09.203Z,5.50
2018-06-15T22:54:38.595Z,5.00
2018-06-15T22:57:07.758Z,5.40
2018-06-15T22:59:36.563Z,5.80
2018-06-15T23:02:05.450Z,5.53
2018-06-15T23:04:34.730Z,4.80
2018-06-15T23:07:03.535Z,5.27
2018-06-15T23:09:33.698Z,6.07
2018-06-15T23:12:02.827Z,5.93
2018-06-15T23:14:31.960Z,5.60
2018-06-15T23:17:01.136Z,4.80
2018-06-15T23:19:30.207Z,6.30
2018-06-15T23:21:59.385Z,6.10
2018-06-15T23:24:28.324Z,5.37
2018-06-15T23:26:57.151Z,5.70
2018-06-15T23:29:26.266Z,5.73
2018-06-15T23:31:55.505Z,5.53
2018-06-15T23:34:25.265Z,5.23
2018-06-15T23:36:54.375Z,6.93
2018-06-15T23:39:23.541Z,6.17
2018-06-15T23:41:52.666Z,4.80
2018-06-15T23:44:21.462Z,5.00
2018-06-15T23:46:50.526Z,4.70
2018-06-15T23:49:19.762Z,4.70
2018-06-15T23:51:49.419Z,5.60
2018-06-15T23:54:18.445Z,6.30
2018-06-15T23:56:47.301Z,5.90
2018-06-15T23:59:16.425Z,5.37
